Flight ASX315X

  • Submitted By: Mark Lubuski
  • Departure Airport: Szczecin (EPSC)
  • Arrival Airport: Gdansk im. Lecha Walesy (EPGD)
  • Aircraft: ATR 72-500 (SP-RYD)
  • Flight Time: 00.49.08
  • Date Submitted: 06/11/2017
  • Route: VAVUN L730 KOSEX
  • Status: Accepted
Flight Details
Gross Revenue:
(71 load / € 55.00 per unit
€ 3,905.00
Fuel Cost:
(576.969 fuel used @ 0.45 / unit)
€ 259.64

Additional Log Information:

View Log

[10:00] - Flight 1 ATR 72-500 SP-RYD SiouxAir
[10:00] - Flight ASX315X is ready to depart EPSC with a final destination of EPGD.
[10:00] - Parking Brake Applied
[10:00] - Boarding
[10:01] - ADF1 - 375.0
[10:01] - ADF2 - 397.0
[10:01] - NAV1 - 110.50
[10:01] - NAV2 - 110.50
[10:01] - COM1 - 122.80
[10:01] - COM2 - 132.12
[10:01] - Transponder - 2200
[10:02] - Beacon Light ON 3AGL
[10:02] - Navigation Lights ON 3AGL
[10:02] - Strobe Lights ON 3AGL
[10:02] - Logo Lights ON 3AGL
[10:02] - Wing Lights ON 3AGL
[10:02] - Flaps to position 1
[10:03] - Engine 1 Started
[10:03] - Engine 2 Started
[10:04] - Taxi Lights ON 3AGL
[10:04] - Parking Brake Released
[10:04] - Taxiing to Runway
[10:05] - Landing Lights ON 3AGL
[10:05] - Taxi Lights OFF 3AGL
[10:05] - Taking Off with 71 passengers on board
[10:05] - Take off at 121kts, with a pitch of 4deg and 5003lbs of fuel on board
[10:05] - Wind Heading 212 | Wind Speed 5kts | Temperature 19 deg C
[10:05] - METAR Departure: EPSC 110730Z 20005KT 160V230 CAVOK 20/12 Q1019

[10:05] - Flaps to position 0 at 413ft and 145kts
[10:05] - Gear up at 276AGL
[10:06] - Climbing to TOC
[10:06] - AutoPilot Engaged at 1815AGL
[10:07] - NAV1 - 110.30
[10:07] - NAV2 - 116.10
[10:10] - Landing Lights OFF 10164AGL
[10:13] - TOC reached
[10:13] - Cruise started
[10:16] - ADF1 - 325.0
[10:28] - Spoilers ON 16532ft, hdg 76 and 247kts
[10:28] - Spoilers OFF 16348ft, hdg 83 and 235kts
[10:29] - TOD reached
[10:29] - Descending to destination
[10:35] - Landing Lights ON 9567AGL
[10:40] - Landing Shortly
[10:43] - Flaps to position 1 at 2979ft and 143kts
[10:45] - Gear down at 2950AGL
[10:45] - Flaps to position 2 at 2854ft and 145kts
[10:46] - AutoPilot Disengaged at 2353AGL
[10:47] - NAV1 - 110.30
[10:47] - NAV2 - 116.10
[10:48] - Landed at -98fpm. With 3773lbs of fuel onboard and a pitch angle of -2deg.
[10:48] - Wind Heading 306 | Wind Speed 10kts | Temperature 18 deg C
[10:48] - METAR Arrival: EPGD 110830Z 29010KT 260V340 9999 FEW029 19/12 Q1020

[10:49] - Taxiing to Gate
[10:49] - Taxi Lights ON 3AGL
[10:49] - Landing Lights OFF 3AGL
[10:49] - Flaps to position 1
[10:50] - Flaps to position 0
[10:50] - Engine 1 Stopped
[10:50] - Engine 2 Stopped
[10:50] - Parking Brake Applied
[10:50] - Arrived safely at EPGD. We hope you enjoyed your flight!
[10:50] - Taxi Lights OFF 3AGL
[10:50] - Wing Lights OFF 3AGL
[10:50] - Flight 1 ATR 72-500 SP-RYD SiouxAir
[10:50] - MaxSim Rate: 1x
[10:50] - SiouxAcars ver: 1.0.1.2

Route Map